Terminal Aerodrome Forecast
Issued by NWS St Louis, MO

Home | Current Version | Previous Version | Text Only | Print | Product List | Glossary On
Versions: 1 2 3 4 5 6 7 8 9 10 11 12 13 14 15 16 17 18 19 20 21 22 23 24 25 26 27
000
FTUS43 KLSX 162103 AAB
TAFCOU
TAF AMD
KCOU 162103Z 1621/1718 13009KT 5SM BR VCSH OVC007
      TEMPO 1621/1623 3SM -SHRA BR BKN011
     FM170200 21007KT 2SM BR VCSH OVC003
     FM170400 23008KT 6SM BR OVC010
     FM171100 27009KT P6SM OVC003=

USA.gov is the U.S. government's official web portal to all federal, state and local government web resources and services.